createdAt,value
2022-09-24T00:00:24.148Z,99934.22
2022-09-24T00:02:54.021Z,99940.06
2022-09-24T00:05:24.034Z,99932.66
2022-09-24T00:07:53.885Z,99936.91
2022-09-24T00:10:23.630Z,99931.41
2022-09-24T00:12:54.699Z,99934.22
2022-09-24T00:15:24.787Z,99942.63
2022-09-24T00:17:54.805Z,99928.53
2022-09-24T00:20:24.733Z,99926.56
2022-09-24T00:22:54.520Z,99925.38
2022-09-24T00:25:41.831Z,99934.69
2022-09-24T00:28:14.123Z,99933.97
2022-09-24T00:30:45.673Z,99934.94
2022-09-24T00:33:16.244Z,99934.13
2022-09-24T00:35:45.997Z,99928.88
2022-09-24T00:38:15.768Z,99926.56
2022-09-24T00:40:45.597Z,99933.03
2022-09-24T00:43:29.477Z,99928.84
2022-09-24T00:46:09.644Z,99937.34
2022-09-24T00:48:40.412Z,99923.94
2022-09-24T00:51:12.720Z,99923.47
2022-09-24T00:53:44.943Z,99928.88
2022-09-24T00:56:16.655Z,99929.97
2022-09-24T00:58:52.294Z,99925.91
2022-09-24T01:01:26.747Z,99924.50
2022-09-24T01:03:58.488Z,99924.66
2022-09-24T01:06:28.465Z,99935.53
2022-09-24T01:09:00.495Z,99922.63
2022-09-24T01:11:42.931Z,99904.44
2022-09-24T01:14:33.126Z,99919.06
2022-09-24T01:17:17.874Z,99922.31
2022-09-24T01:20:21.649Z,99922.28
2022-09-24T01:23:04.402Z,99919.34
2022-09-24T01:25:42.145Z,99918.94
2022-09-24T01:28:30.388Z,99921.38
2022-09-24T01:31:08.053Z,99898.44
2022-09-24T01:33:38.543Z,99921.47
2022-09-24T01:36:10.843Z,99918.28
2022-09-24T01:38:44.384Z,99927.03
2022-09-24T01:41:16.185Z,99926.31
2022-09-24T01:43:46.545Z,99922.06
2022-09-24T01:46:19.859Z,99927.63
2022-09-24T01:48:50.432Z,99929.47
2022-09-24T01:51:24.412Z,99922.19
2022-09-24T01:53:57.180Z,99924.72
2022-09-24T01:56:33.669Z,99922.31
2022-09-24T01:59:10.838Z,99925.59
2022-09-24T02:01:46.503Z,99921.59
2022-09-24T02:04:20.440Z,99935.78
2022-09-24T02:06:59.018Z,99940.63
2022-09-24T02:09:36.817Z,99941.34
2022-09-24T02:12:10.419Z,99937.09
2022-09-24T02:14:46.016Z,99946.09
2022-09-24T02:17:17.613Z,99942.69
2022-09-24T02:19:50.959Z,99953.97
2022-09-24T02:22:21.805Z,99954.47
2022-09-24T02:24:56.399Z,99954.94
2022-09-24T02:27:28.650Z,99957.38
2022-09-24T02:29:59.855Z,99959.66
2022-09-24T02:32:37.884Z,99958.81
2022-09-24T02:35:11.418Z,99953.25
2022-09-24T02:37:43.245Z,99962.09
2022-09-24T02:40:15.667Z,99966.47
2022-09-24T02:42:45.467Z,99965.16
2022-09-24T02:45:15.209Z,99978.72
2022-09-24T02:47:46.311Z,99973.97
2022-09-24T02:50:16.020Z,99975.31
2022-09-24T02:52:45.905Z,99970.22
2022-09-24T02:55:16.780Z,99967.28
2022-09-24T02:57:46.488Z,99973.97
2022-09-24T03:00:20.951Z,99975.56
2022-09-24T03:02:52.124Z,99980.41
2022-09-24T03:05:22.090Z,99983.78
2022-09-24T03:07:51.813Z,99985.72
2022-09-24T03:10:21.812Z,99978.81
2022-09-24T03:12:51.561Z,99976.28
2022-09-24T03:15:21.258Z,99976.75
2022-09-24T03:17:52.715Z,99982.09
2022-09-24T03:20:24.275Z,99967.78
2022-09-24T03:22:54.568Z,99987.06
2022-09-24T03:25:25.315Z,99981.38
2022-09-24T03:27:55.100Z,99990.94
2022-09-24T03:30:46.901Z,99993.84
2022-09-24T03:33:18.043Z,99994.53
2022-09-24T03:35:47.974Z,100000.06
2022-09-24T03:38:17.665Z,99992.13
2022-09-24T03:40:47.736Z,100003.03
2022-09-24T03:43:18.540Z,100005.19
2022-09-24T03:45:49.163Z,100010.19
2022-09-24T03:48:21.147Z,100002.59
2022-09-24T03:50:52.011Z,100005.72
2022-09-24T03:53:22.402Z,100011.69
2022-09-24T03:55:56.343Z,100006.69
2022-09-24T03:58:26.221Z,100019.25
2022-09-24T04:01:00.938Z,100015.88
2022-09-24T04:03:32.143Z,100019.03
2022-09-24T04:06:02.050Z,100020.50
2022-09-24T04:08:32.160Z,100026.75
2022-09-24T04:11:02.161Z,100035.72
2022-09-24T04:13:32.053Z,100038.41
2022-09-24T04:16:03.700Z,100033.56
2022-09-24T04:18:39.075Z,100038.50
2022-09-24T04:21:10.381Z,100043.81
2022-09-24T04:23:40.564Z,100044.69
2022-09-24T04:26:10.732Z,100051.09
2022-09-24T04:28:40.688Z,100048.53
2022-09-24T04:31:10.541Z,100058.19
2022-09-24T04:33:41.863Z,100060.25
2022-09-24T04:36:11.884Z,100069.84
2022-09-24T04:38:41.808Z,100073.84
2022-09-24T04:41:12.551Z,100074.69
2022-09-24T04:43:42.562Z,100073.28
2022-09-24T04:46:12.925Z,100079.88
2022-09-24T04:48:44.153Z,100079.09
2022-09-24T04:51:15.784Z,100084.31
2022-09-24T04:53:47.864Z,100087.44
2022-09-24T04:56:17.699Z,100083.94
2022-09-24T04:58:52.365Z,100088.06
2022-09-24T05:01:23.752Z,100088.72
2022-09-24T05:03:55.318Z,100083.50
2022-09-24T05:06:25.772Z,100093.47
2022-09-24T05:08:55.584Z,100086.00
2022-09-24T05:11:25.500Z,100083.38
2022-09-24T05:13:55.601Z,100081.25
2022-09-24T05:16:25.417Z,100078.63
2022-09-24T05:18:58.199Z,100081.09
2022-09-24T05:21:28.146Z,100076.91
2022-09-24T05:23:58.890Z,100070.84
2022-09-24T05:26:46.824Z,100082.75
2022-09-24T05:29:16.716Z,100065.75
2022-09-24T05:31:46.542Z,100072.44
2022-09-24T05:34:18.104Z,100075.22
2022-09-24T05:36:47.882Z,100080.28
2022-09-24T05:39:17.678Z,100081.97
2022-09-24T05:41:47.744Z,100077.59
2022-09-24T05:44:19.182Z,100092.81
2022-09-24T05:46:49.192Z,100082.19
2022-09-24T05:49:21.078Z,100093.72
2022-09-24T05:51:51.113Z,100091.19
2022-09-24T05:54:21.442Z,100093.72
2022-09-24T05:56:51.405Z,100086.03
2022-09-24T05:59:21.463Z,100094.81
2022-09-24T06:01:51.324Z,100095.13
2022-09-24T06:04:22.724Z,100106.34
2022-09-24T06:06:52.420Z,100098.53
2022-09-24T06:09:22.372Z,100098.84
2022-09-24T06:11:54.090Z,100111.50
2022-09-24T06:14:24.165Z,100117.22
2022-09-24T06:16:54.499Z,100114.97
2022-09-24T06:19:25.984Z,100120.44
2022-09-24T06:22:00.464Z,100109.47
2022-09-24T06:24:30.221Z,100118.59
2022-09-24T06:26:59.945Z,100116.72
2022-09-24T06:29:29.686Z,100127.25
2022-09-24T06:31:59.895Z,100121.09
2022-09-24T06:34:31.052Z,100124.19
2022-09-24T06:37:01.220Z,100123.78
2022-09-24T06:39:31.149Z,100118.66
2022-09-24T06:42:01.133Z,100123.19
2022-09-24T06:44:35.852Z,100118.38
2022-09-24T06:47:05.748Z,100103.31
2022-09-24T06:49:37.270Z,100121.09
2022-09-24T06:52:11.970Z,100115.91
2022-09-24T06:54:46.636Z,100121.16
2022-09-24T06:57:17.197Z,100120.19
2022-09-24T06:59:46.947Z,100119.91
2022-09-24T07:02:17.035Z,100119.78
2022-09-24T07:04:48.266Z,100119.34
2022-09-24T07:07:33.787Z,100124.94
2022-09-24T07:10:06.567Z,100126.91
2022-09-24T07:12:37.104Z,100123.47
2022-09-24T07:15:08.126Z,100120.63
2022-09-24T07:17:38.236Z,100119.47
2022-09-24T07:20:10.671Z,100115.78
2022-09-24T07:22:42.613Z,100120.31
2022-09-24T07:25:13.616Z,100110.53
2022-09-24T07:27:43.374Z,100110.78
2022-09-24T07:30:14.075Z,100122.03
2022-09-24T07:32:44.166Z,100118.19
2022-09-24T07:35:15.508Z,100119.00
2022-09-24T07:37:45.310Z,100111.56
2022-09-24T07:40:15.523Z,100121.38
2022-09-24T07:42:48.989Z,100124.78
2022-09-24T07:45:19.065Z,100114.41
2022-09-24T07:47:48.735Z,100121.28
2022-09-24T07:50:19.990Z,100116.41
2022-09-24T07:52:51.447Z,100116.09
2022-09-24T07:55:21.508Z,100115.88
2022-09-24T07:57:52.943Z,100110.91
2022-09-24T08:00:24.931Z,100114.34
2022-09-24T08:02:56.541Z,100107.94
2022-09-24T08:05:28.945Z,100111.81
2022-09-24T08:08:03.737Z,100112.56
2022-09-24T08:10:33.519Z,100112.63
2022-09-24T08:13:04.177Z,100110.25
2022-09-24T08:15:38.724Z,100100.84
2022-09-24T08:18:09.055Z,100100.06
2022-09-24T08:20:40.793Z,100104.88
2022-09-24T08:23:13.304Z,100101.88
2022-09-24T08:25:43.123Z,100094.53
2022-09-24T08:28:19.739Z,100086.91
2022-09-24T08:30:49.561Z,100086.81
2022-09-24T08:33:19.652Z,100083.16
2022-09-24T08:35:51.076Z,100082.41
2022-09-24T08:38:20.996Z,100085.16
2022-09-24T08:41:00.855Z,100072.59
2022-09-24T08:43:44.044Z,100083.94
2022-09-24T08:46:37.878Z,100077.56
2022-09-24T08:49:17.541Z,100075.06
2022-09-24T08:52:02.433Z,100074.22
2022-09-24T08:54:36.752Z,100081.13
2022-09-24T08:57:15.617Z,100083.69
2022-09-24T08:59:52.904Z,100075.25
2022-09-24T09:02:38.229Z,100080.31
2022-09-24T09:05:27.531Z,100078.97
2022-09-24T09:08:50.069Z,100065.78
2022-09-24T09:11:25.566Z,100073.22
2022-09-24T09:14:04.660Z,100063.09
2022-09-24T09:16:47.704Z,100062.47
2022-09-24T09:19:19.685Z,100048.94
2022-09-24T09:21:55.239Z,100057.56
2022-09-24T09:24:40.969Z,100060.09
2022-09-24T09:27:15.291Z,100048.47
2022-09-24T09:29:47.314Z,100050.00
2022-09-24T09:32:27.919Z,100051.69
2022-09-24T09:35:04.011Z,100044.78
2022-09-24T09:37:45.506Z,100043.09
2022-09-24T09:40:32.314Z,100050.31
2022-09-24T09:43:11.984Z,100046.75
2022-09-24T09:45:53.599Z,100036.31
2022-09-24T09:48:26.903Z,100040.84
2022-09-24T09:51:06.155Z,100041.38
2022-09-24T09:53:40.672Z,100039.50
2022-09-24T09:56:13.386Z,100029.03
2022-09-24T09:58:47.234Z,100032.09
2022-09-24T10:01:21.273Z,100032.75
2022-09-24T10:03:51.936Z,100018.78
2022-09-24T10:06:27.447Z,100017.06
2022-09-24T10:09:13.070Z,100016.22
2022-09-24T10:11:48.256Z,100007.94
2022-09-24T10:14:22.773Z,100005.38
2022-09-24T10:16:56.147Z,100003.84
2022-09-24T10:19:31.142Z,100000.81
2022-09-24T10:22:09.664Z,99995.91
2022-09-24T10:24:44.761Z,100000.88
2022-09-24T10:27:31.949Z,99995.41
2022-09-24T10:30:20.514Z,99994.72
2022-09-24T10:32:58.707Z,99983.59
2022-09-24T10:35:30.185Z,99988.63
2022-09-24T10:38:15.070Z,99976.84
2022-09-24T10:40:45.598Z,99983.16
2022-09-24T10:43:21.104Z,99979.25
2022-09-24T10:46:23.927Z,99971.75
2022-09-24T10:49:09.228Z,99963.81
2022-09-24T10:51:53.691Z,99969.63
2022-09-24T10:54:43.469Z,99976.75
2022-09-24T10:57:26.418Z,99964.22
2022-09-24T11:00:09.453Z,99967.22
2022-09-24T11:03:06.845Z,99960.38
2022-09-24T11:05:43.041Z,99949.75
2022-09-24T11:08:26.256Z,99956.72
2022-09-24T11:11:10.065Z,99961.44
2022-09-24T11:13:51.532Z,99964.81
2022-09-24T11:16:56.651Z,99953.66
2022-09-24T11:19:50.344Z,99950.91
2022-09-24T11:22:33.132Z,99942.97
2022-09-24T11:25:30.483Z,99938.75
2022-09-24T11:28:15.365Z,99940.06
2022-09-24T11:30:53.511Z,99941.41
2022-09-24T11:33:36.326Z,99936.03
2022-09-24T11:36:28.342Z,99928.94
2022-09-24T11:39:13.508Z,99924.09
2022-09-24T11:41:50.971Z,99923.66
2022-09-24T11:44:44.027Z,99924.63
2022-09-24T11:47:26.521Z,99926.34
2022-09-24T11:50:16.231Z,99918.59
2022-09-24T11:52:53.528Z,99926.44
2022-09-24T11:55:31.710Z,99910.63
2022-09-24T11:58:10.923Z,99912.00
2022-09-24T12:00:46.042Z,99902.31
2022-09-24T12:03:25.941Z,99908.66
2022-09-24T12:06:02.442Z,99912.00
2022-09-24T12:08:38.169Z,99912.09
2022-09-24T12:11:14.674Z,99907.34
2022-09-24T12:13:52.293Z,99878.66
2022-09-24T12:16:27.539Z,99910.06
2022-09-24T12:19:02.790Z,99907.53
2022-09-24T12:21:41.263Z,99900.25
2022-09-24T12:24:17.288Z,99910.81
2022-09-24T12:26:50.525Z,99893.44
2022-09-24T12:29:56.182Z,99908.28
2022-09-24T12:32:56.148Z,99901.75
2022-09-24T12:35:42.698Z,99894.28
2022-09-24T12:38:20.590Z,99904.56
2022-09-24T12:41:19.536Z,99900.53
2022-09-24T12:43:54.268Z,99892.50
2022-09-24T12:46:28.261Z,99884.13
2022-09-24T12:48:58.277Z,99891.47
2022-09-24T12:51:37.415Z,99877.75
2022-09-24T12:54:20.125Z,99868.06
2022-09-24T12:56:50.028Z,99881.03
2022-09-24T12:59:27.760Z,99871.91
2022-09-24T13:02:15.948Z,99877.94
2022-09-24T13:04:52.642Z,99865.53
2022-09-24T13:07:34.619Z,99855.81
2022-09-24T13:10:25.148Z,99859.75
2022-09-24T13:12:57.033Z,99862.34
2022-09-24T13:15:34.853Z,99864.78
2022-09-24T13:18:15.762Z,99867.41
2022-09-24T13:20:57.214Z,99865.63
2022-09-24T13:23:49.373Z,99862.91
2022-09-24T13:26:33.836Z,99869.47
2022-09-24T13:29:04.494Z,99864.03
2022-09-24T13:31:47.735Z,99861.69
2022-09-24T13:34:22.934Z,99866.56
2022-09-24T13:36:58.953Z,99864.50
2022-09-24T13:39:36.613Z,99856.38
2022-09-24T13:42:18.874Z,99854.50
2022-09-24T13:44:53.567Z,99857.03
2022-09-24T13:47:29.827Z,99857.88
2022-09-24T13:50:09.204Z,99858.91
2022-09-24T13:52:43.900Z,99855.25
2022-09-24T13:55:20.352Z,99853.47
2022-09-24T13:57:51.744Z,99852.06
2022-09-24T14:00:24.556Z,99850.09
2022-09-24T14:03:02.993Z,99839.81
2022-09-24T14:05:36.983Z,99841.59
2022-09-24T14:08:09.768Z,99842.75
2022-09-24T14:10:41.117Z,99841.91
2022-09-24T14:13:19.294Z,99850.50
2022-09-24T14:15:55.379Z,99840.78
2022-09-24T14:18:26.765Z,99841.38
2022-09-24T14:21:04.146Z,99841.81
2022-09-24T14:23:40.402Z,99845.09
2022-09-24T14:26:20.373Z,99844.25
2022-09-24T14:28:52.602Z,99838.53
2022-09-24T14:31:22.738Z,99840.28
2022-09-24T14:33:54.230Z,99846.06
2022-09-24T14:36:29.152Z,99843.41
2022-09-24T14:39:05.202Z,99843.78
2022-09-24T14:41:37.598Z,99842.75
2022-09-24T14:44:14.460Z,99837.53
2022-09-24T14:46:49.678Z,99842.75
2022-09-24T14:49:22.031Z,99846.50
2022-09-24T14:51:54.573Z,99850.47
2022-09-24T14:54:32.958Z,99845.34
2022-09-24T14:57:23.309Z,99840.84
2022-09-24T14:59:54.846Z,99836.94
2022-09-24T15:02:33.108Z,99838.50
2022-09-24T15:05:06.933Z,99838.13
2022-09-24T15:07:37.665Z,99836.75
2022-09-24T15:10:08.210Z,99839.66
2022-09-24T15:12:44.717Z,99830.50
2022-09-24T15:15:30.609Z,99831.59
2022-09-24T15:18:00.768Z,99828.81
2022-09-24T15:20:30.844Z,99831.16
2022-09-24T15:23:01.960Z,99813.53
2022-09-24T15:25:32.285Z,99830.47
2022-09-24T15:28:02.735Z,99828.13
2022-09-24T15:30:35.173Z,99834.56
2022-09-24T15:33:10.436Z,99826.66
2022-09-24T15:35:40.898Z,99835.94
2022-09-24T15:38:15.936Z,99843.38
2022-09-24T15:40:46.170Z,99824.97
2022-09-24T15:43:22.381Z,99841.81
2022-09-24T15:45:53.803Z,99838.16
2022-09-24T15:48:25.165Z,99851.38
2022-09-24T15:50:56.006Z,99846.69
2022-09-24T15:53:27.384Z,99841.97
2022-09-24T15:56:02.569Z,99848.94
2022-09-24T15:58:32.438Z,99854.69
2022-09-24T16:01:04.388Z,99850.00
2022-09-24T16:03:34.237Z,99850.34
2022-09-24T16:06:04.075Z,99853.75
2022-09-24T16:08:34.133Z,99866.25
2022-09-24T16:11:08.876Z,99856.50
2022-09-24T16:13:39.299Z,99860.53
2022-09-24T16:16:10.734Z,99860.72
2022-09-24T16:18:40.839Z,99865.13
2022-09-24T16:21:10.718Z,99866.81
2022-09-24T16:23:41.916Z,99863.81
2022-09-24T16:26:11.851Z,99859.09
2022-09-24T16:28:41.857Z,99862.13
2022-09-24T16:31:13.308Z,99799.72
2022-09-24T16:33:43.084Z,99876.34
2022-09-24T16:36:13.631Z,99864.94
2022-09-24T16:38:43.676Z,99879.91
2022-09-24T16:41:13.481Z,99875.38
2022-09-24T16:43:43.226Z,99888.19
2022-09-24T16:46:20.180Z,99888.84
2022-09-24T16:48:50.858Z,99875.34
2022-09-24T16:51:21.158Z,99880.75
2022-09-24T16:53:55.528Z,99891.19
2022-09-24T16:56:26.221Z,99893.56
2022-09-24T16:58:57.561Z,99882.94
2022-09-24T17:01:28.863Z,99895.91
2022-09-24T17:03:59.989Z,99898.59
2022-09-24T17:06:31.213Z,99890.66
2022-09-24T17:09:18.756Z,99905.81
2022-09-24T17:11:49.760Z,99911.56
2022-09-24T17:14:19.935Z,99901.25
2022-09-24T17:16:51.741Z,99920.31
2022-09-24T17:19:21.745Z,99918.44
2022-09-24T17:21:52.210Z,99918.59
2022-09-24T17:24:22.335Z,99917.09
2022-09-24T17:26:54.154Z,99922.47
2022-09-24T17:29:30.346Z,99926.00
2022-09-24T17:32:03.504Z,99927.38
2022-09-24T17:34:33.566Z,99927.53
2022-09-24T17:37:03.527Z,99926.00
2022-09-24T17:39:33.346Z,99917.91
2022-09-24T17:42:03.489Z,99920.94
2022-09-24T17:44:33.275Z,99920.78
2022-09-24T17:47:04.721Z,99926.53
2022-09-24T17:49:35.025Z,99934.28
2022-09-24T17:52:05.589Z,99936.63
2022-09-24T17:54:35.947Z,99929.91
2022-09-24T17:57:06.223Z,99925.19
2022-09-24T17:59:36.078Z,99922.84
2022-09-24T18:02:08.012Z,99936.16
2022-09-24T18:04:38.381Z,99917.63
2022-09-24T18:07:08.509Z,99928.59
2022-09-24T18:09:38.448Z,99931.94
2022-09-24T18:12:09.697Z,99931.63
2022-09-24T18:14:41.104Z,99940.53
2022-09-24T18:17:14.363Z,99939.88
2022-09-24T18:19:44.590Z,99947.09
2022-09-24T18:22:14.657Z,99954.34
2022-09-24T18:24:45.046Z,99964.94
2022-09-24T18:27:16.130Z,99970.13
2022-09-24T18:29:47.088Z,99963.25
2022-09-24T18:32:19.820Z,99954.81
2022-09-24T18:34:49.913Z,99958.50
2022-09-24T18:37:20.178Z,99958.50
2022-09-24T18:39:50.089Z,99954.28
2022-09-24T18:42:20.177Z,99959.63
2022-09-24T18:44:50.801Z,99955.72
2022-09-24T18:47:22.206Z,99962.94
2022-09-24T18:49:52.268Z,99954.19
2022-09-24T18:52:22.118Z,99957.69
2022-09-24T18:54:52.187Z,99953.81
2022-09-24T18:57:22.058Z,99957.69
2022-09-24T18:59:52.186Z,99953.25
2022-09-24T19:02:25.268Z,99958.47
2022-09-24T19:04:55.366Z,99943.47
2022-09-24T19:07:25.211Z,99949.50
2022-09-24T19:09:56.391Z,99936.50
2022-09-24T19:12:27.545Z,99947.88
2022-09-24T19:14:58.760Z,99939.97
2022-09-24T19:17:29.958Z,99934.91
2022-09-24T19:20:00.297Z,99940.56
2022-09-24T19:22:30.680Z,99941.44
2022-09-24T19:25:00.704Z,99944.78
2022-09-24T19:27:30.590Z,99925.56
2022-09-24T19:30:01.185Z,99918.94
2022-09-24T19:32:33.138Z,99927.09
2022-09-24T19:35:02.998Z,99931.28
2022-09-24T19:37:32.865Z,99938.69
2022-09-24T19:40:03.190Z,99937.84
2022-09-24T19:42:33.143Z,99933.31
2022-09-24T19:45:02.963Z,99832.31
2022-09-24T19:47:34.473Z,99947.66
2022-09-24T19:50:04.441Z,99947.53
2022-09-24T19:52:34.881Z,99933.28
2022-09-24T19:55:05.273Z,99957.16
2022-09-24T19:57:35.325Z,99956.72
2022-09-24T20:00:06.064Z,99958.72
2022-09-24T20:02:38.064Z,99955.88
2022-09-24T20:05:08.701Z,99952.50
2022-09-24T20:07:38.757Z,99957.41
2022-09-24T20:10:10.425Z,99945.06
2022-09-24T20:12:41.876Z,99970.31
2022-09-24T20:15:12.462Z,99969.00
2022-09-24T20:17:43.672Z,99982.44
2022-09-24T20:20:14.722Z,99966.19
2022-09-24T20:22:44.605Z,99971.72
2022-09-24T20:25:14.430Z,99971.38
2022-09-24T20:27:52.229Z,99976.47
2022-09-24T20:30:23.916Z,99972.69
2022-09-24T20:32:55.229Z,99981.78
2022-09-24T20:35:25.009Z,99977.91
2022-09-24T20:37:54.999Z,99982.91
2022-09-24T20:40:24.910Z,99978.38
2022-09-24T20:42:54.803Z,99983.44
2022-09-24T20:45:24.620Z,99982.00
2022-09-24T20:47:55.738Z,99991.91
2022-09-24T20:50:25.815Z,99990.75
2022-09-24T20:52:55.613Z,99992.28
2022-09-24T20:55:25.427Z,99990.91
2022-09-24T20:57:55.287Z,99990.06
2022-09-24T21:00:25.145Z,99995.75
2022-09-24T21:02:56.488Z,99980.31
2022-09-24T21:05:28.137Z,99989.13
2022-09-24T21:07:57.949Z,99975.47
2022-09-24T21:10:27.744Z,99994.50
2022-09-24T21:12:57.585Z,99984.16
2022-09-24T21:15:27.354Z,99996.13
2022-09-24T21:18:21.862Z,99987.13
2022-09-24T21:20:49.889Z,99991.69
2022-09-24T21:23:21.572Z,99993.34
2022-09-24T21:25:55.120Z,99986.97
2022-09-24T21:28:25.054Z,99974.47
2022-09-24T21:31:03.310Z,99988.84
2022-09-24T21:33:35.952Z,99976.44
2022-09-24T21:36:07.947Z,99985.94
2022-09-24T21:38:38.345Z,99987.31
2022-09-24T21:41:08.985Z,99982.53
2022-09-24T21:43:40.018Z,99976.31
2022-09-24T21:46:10.011Z,99978.19
2022-09-24T21:48:41.372Z,99969.66
2022-09-24T21:51:13.823Z,99968.22
2022-09-24T21:53:43.806Z,99970.75
2022-09-24T21:56:13.974Z,99963.75
2022-09-24T21:58:43.713Z,99977.06
2022-09-24T22:01:16.824Z,99982.16
2022-09-24T22:03:48.271Z,99973.44
2022-09-24T22:06:18.076Z,99951.75
2022-09-24T22:08:47.786Z,99973.44
2022-09-24T22:11:17.980Z,99979.53
2022-09-24T22:13:47.897Z,99973.78
2022-09-24T22:16:17.812Z,99973.47
2022-09-24T22:18:49.006Z,99991.84
2022-09-24T22:21:18.958Z,99988.06
2022-09-24T22:23:48.835Z,99983.22
2022-09-24T22:26:18.745Z,99995.66
2022-09-24T22:28:49.191Z,99991.72
2022-09-24T22:31:20.103Z,100002.16
2022-09-24T22:34:09.246Z,99985.84
2022-09-24T22:36:39.638Z,100002.75
2022-09-24T22:39:10.539Z,99995.72
2022-09-24T22:41:43.032Z,99995.72
2022-09-24T22:44:13.422Z,100003.75
2022-09-24T22:46:43.410Z,100005.03
2022-09-24T22:49:14.855Z,100005.19
2022-09-24T22:51:44.935Z,100002.34
2022-09-24T22:54:15.165Z,100001.78
2022-09-24T22:56:45.179Z,100008.13
2022-09-24T22:59:15.057Z,100010.69
2022-09-24T23:01:45.563Z,100019.28
2022-09-24T23:04:16.745Z,100008.25
2022-09-24T23:06:46.494Z,100007.28
2022-09-24T23:09:16.343Z,100001.63
2022-09-24T23:11:46.066Z,99997.84
2022-09-24T23:14:17.459Z,99995.16
2022-09-24T23:16:47.714Z,100006.00
2022-09-24T23:19:20.976Z,100001.91
2022-09-24T23:21:50.905Z,99999.41
2022-09-24T23:24:22.038Z,100006.44
2022-09-24T23:26:52.193Z,100003.06
2022-09-24T23:29:22.001Z,100007.13
2022-09-24T23:31:52.062Z,99997.97
2022-09-24T23:34:23.701Z,100006.97
2022-09-24T23:36:53.592Z,100002.31
2022-09-24T23:39:24.000Z,100003.31
2022-09-24T23:41:53.988Z,99998.94
2022-09-24T23:44:24.050Z,100001.47
2022-09-24T23:46:56.526Z,99998.25
2022-09-24T23:49:27.752Z,99983.00
2022-09-24T23:51:57.621Z,99998.41
2022-09-24T23:54:29.327Z,99992.06
2022-09-24T23:56:59.069Z,100002.00
2022-09-24T23:59:28.959Z,99995.66
